Time;durP1;ratioP1;P1;durP2;ratioP2;P2;SDS_P1;SDS_P2;PMS_P1;PMS_P2;Temp;Humidity;BMP_temperature;BMP_pressure;BME280_temperature;BME280_humidity;BME280_pressure;Samples;Min_cycle;Max_cycle;Signal;HPM_P1;HPM_P2
2021/03/16 00:01:06;;;;;;;14.40;12.82;;;;;;;;;;4957063;28;20370;-61
2021/03/16 00:03:32;;;;;;;16.45;14.40;;;;;;;;;;4958315;28;20027;-61
2021/03/16 00:05:57;;;;;;;18.40;14.77;;;;;;;;;;4957041;28;20046;-58
2021/03/16 00:08:22;;;;;;;24.85;16.27;;;;;;;;;;4955170;28;20039;-60
2021/03/16 00:10:48;;;;;;;22.10;16.60;;;;;;;;;;4957054;28;20046;-56
2021/03/16 00:13:13;;;;;;;21.35;14.40;;;;;;;;;;4956881;28;20026;-60
2021/03/16 00:15:39;;;;;;;31.38;18.58;;;;;;;;;;4955280;28;20035;-59
2021/03/16 00:18:07;;;;;;;28.13;16.27;;;;;;;;;;4957764;28;20084;-62
2021/03/16 00:20:32;;;;;;;17.73;12.43;;;;;;;;;;4954490;28;20497;-62
2021/03/16 00:22:57;;;;;;;9.45;8.25;;;;;;;;;;4956502;28;20035;-60
2021/03/16 00:25:22;;;;;;;12.88;7.32;;;;;;;;;;4955156;28;20066;-61
2021/03/16 00:27:48;;;;;;;12.32;7.55;;;;;;;;;;4956909;28;20705;-57
2021/03/16 00:30:14;;;;;;;14.27;9.95;;;;;;;;;;4956623;28;20027;-62
2021/03/16 00:32:39;;;;;;;17.98;16.08;;;;;;;;;;4955033;28;20023;-61
2021/03/16 00:35:05;;;;;;;27.27;17.60;;;;;;;;;;4956664;28;20039;-61
2021/03/16 00:37:30;;;;;;;27.02;18.70;;;;;;;;;;4958493;28;20035;-61
2021/03/16 00:39:55;;;;;;;22.17;9.43;;;;;;;;;;4959672;28;20046;-59
2021/03/16 00:42:20;;;;;;;8.85;7.53;;;;;;;;;;4959572;28;20027;-60
2021/03/16 00:44:46;;;;;;;14.80;10.55;;;;;;;;;;4959067;28;20046;-62
2021/03/16 00:47:11;;;;;;;19.98;11.35;;;;;;;;;;4942170;28;20122;-60
2021/03/16 00:49:37;;;;;;;13.75;11.23;;;;;;;;;;4954054;28;20511;-60
2021/03/16 00:52:02;;;;;;;16.90;11.93;;;;;;;;;;4960926;28;20496;-62
2021/03/16 00:54:28;;;;;;;15.43;9.93;;;;;;;;;;4959800;28;20042;-63
2021/03/16 00:56:53;;;;;;;15.63;10.57;;;;;;;;;;4959996;28;20038;-63
2021/03/16 00:59:18;;;;;;;13.45;11.55;;;;;;;;;;4959213;28;20046;-59
2021/03/16 01:01:44;;;;;;;14.27;10.23;;;;;;;;;;4966506;28;20031;-62
2021/03/16 01:04:09;;;;;;;10.07;7.00;;;;;;;;;;4958787;28;20054;-61
2021/03/16 01:06:34;;;;;;;15.88;8.50;;;;;;;;;;4960230;28;20049;-64
2021/03/16 01:09:00;;;;;;;14.35;8.25;;;;;;;;;;4959627;28;20030;-63
2021/03/16 01:11:25;;;;;;;17.50;11.38;;;;;;;;;;4961352;28;20046;-59
2021/03/16 01:13:50;;;;;;;14.63;10.27;;;;;;;;;;4960381;28;20382;-61
2021/03/16 01:16:15;;;;;;;13.70;9.38;;;;;;;;;;4957924;28;20027;-62
2021/03/16 01:18:41;;;;;;;13.18;10.98;;;;;;;;;;4961306;28;20027;-61
2021/03/16 01:21:07;;;;;;;9.00;7.15;;;;;;;;;;4955123;28;20051;-59
2021/03/16 01:23:33;;;;;;;6.50;5.05;;;;;;;;;;4963153;28;20030;-61
2021/03/16 01:25:58;;;;;;;10.35;6.93;;;;;;;;;;4966265;28;20722;-62
2021/03/16 01:28:23;;;;;;;8.13;6.20;;;;;;;;;;4962576;28;20483;-62
2021/03/16 01:30:48;;;;;;;9.90;5.93;;;;;;;;;;4964574;28;20146;-60
2021/03/16 01:33:21;;;;;;;7.95;5.38;;;;;;;;;;4961232;28;20273;-63
2021/03/16 01:35:46;;;;;;;6.43;3.88;;;;;;;;;;4961297;28;20043;-62
2021/03/16 01:38:11;;;;;;;8.13;3.90;;;;;;;;;;4958818;28;20027;-64
2021/03/16 01:40:38;;;;;;;12.05;4.70;;;;;;;;;;4961514;28;20043;-63
2021/03/16 01:43:06;;;;;;;6.10;3.72;;;;;;;;;;4959388;28;20065;-61
2021/03/16 01:45:31;;;;;;;5.55;4.03;;;;;;;;;;4958141;28;20043;-59
2021/03/16 01:47:57;;;;;;;4.65;3.60;;;;;;;;;;4959615;28;20031;-61
2021/03/16 01:50:22;;;;;;;6.85;2.70;;;;;;;;;;4959961;28;20043;-59
2021/03/16 01:52:49;;;;;;;3.45;2.42;;;;;;;;;;4958822;28;20037;-61
2021/03/16 01:55:16;;;;;;;5.00;2.20;;;;;;;;;;4958408;28;20110;-60
2021/03/16 01:57:43;;;;;;;12.27;3.58;;;;;;;;;;4946546;28;20027;-60
2021/03/16 02:00:09;;;;;;;4.47;2.85;;;;;;;;;;4960884;28;20046;-61
2021/03/16 02:02:35;;;;;;;6.53;3.90;;;;;;;;;;4959322;28;20027;-64
2021/03/16 02:05:01;;;;;;;10.40;3.50;;;;;;;;;;4958999;28;20462;-60
2021/03/16 02:07:31;;;;;;;9.60;3.50;;;;;;;;;;4958576;28;20093;-60
2021/03/16 02:10:10;;;;;;;4.00;2.70;;;;;;;;;;4959344;28;20094;-62
2021/03/16 02:12:39;;;;;;;5.32;3.90;;;;;;;;;;4960051;28;20065;-62
2021/03/16 02:15:04;;;;;;;6.30;4.75;;;;;;;;;;4961576;28;20046;-62
2021/03/16 02:17:33;;;;;;;12.48;6.22;;;;;;;;;;4944258;28;20082;-61
2021/03/16 02:19:58;;;;;;;12.80;6.65;;;;;;;;;;4959164;28;20035;-58
2021/03/16 02:22:25;;;;;;;9.77;6.22;;;;;;;;;;4956965;28;20031;-59
2021/03/16 02:25:05;;;;;;;8.68;5.68;;;;;;;;;;4962884;28;20030;-61
2021/03/16 02:27:41;;;;;;;5.03;3.85;;;;;;;;;;4958818;28;20901;-61
2021/03/16 02:30:07;;;;;;;12.75;3.30;;;;;;;;;;4949070;28;20073;-56
2021/03/16 02:32:32;;;;;;;10.68;4.82;;;;;;;;;;4956851;28;20146;-62
2021/03/16 02:34:59;;;;;;;6.38;3.60;;;;;;;;;;4959442;28;20525;-61
2021/03/16 02:37:26;;;;;;;10.40;6.05;;;;;;;;;;4957454;28;20026;-61
2021/03/16 02:39:52;;;;;;;5.57;3.40;;;;;;;;;;4958699;28;20043;-61
2021/03/16 02:42:19;;;;;;;8.25;3.17;;;;;;;;;;4960861;28;20030;-61
2021/03/16 02:44:45;;;;;;;10.05;4.05;;;;;;;;;;4957770;28;20106;-61
2021/03/16 02:47:11;;;;;;;6.32;4.28;;;;;;;;;;4958065;28;20070;-61
2021/03/16 02:49:38;;;;;;;9.77;5.32;;;;;;;;;;4958801;28;20377;-61
2021/03/16 02:52:03;;;;;;;5.97;4.10;;;;;;;;;;4957720;28;20101;-61
2021/03/16 02:54:30;;;;;;;8.57;5.13;;;;;;;;;;4957151;28;20485;-59
2021/03/16 02:56:56;;;;;;;10.10;6.95;;;;;;;;;;4958752;28;20491;-60
2021/03/16 02:59:21;;;;;;;14.27;4.05;;;;;;;;;;4956182;28;20034;-56
2021/03/16 03:01:47;;;;;;;9.88;3.38;;;;;;;;;;4962048;28;20042;-59
2021/03/16 03:04:13;;;;;;;5.22;3.05;;;;;;;;;;4956918;28;20179;-62
2021/03/16 03:06:39;;;;;;;4.63;2.50;;;;;;;;;;4958780;28;20031;-62
2021/03/16 03:09:12;;;;;;;6.30;3.28;;;;;;;;;;4961871;28;20041;-63
2021/03/16 03:11:37;;;;;;;6.40;2.55;;;;;;;;;;4959307;28;20675;-60
2021/03/16 03:14:04;;;;;;;3.63;2.42;;;;;;;;;;4957964;28;20093;-62
2021/03/16 03:16:29;;;;;;;5.68;3.05;;;;;;;;;;4958747;28;20477;-60
2021/03/16 03:18:55;;;;;;;9.13;4.32;;;;;;;;;;4957589;28;20030;-59
2021/03/16 03:21:24;;;;;;;11.25;5.20;;;;;;;;;;4963768;28;20066;-59
2021/03/16 03:23:55;;;;;;;10.32;4.13;;;;;;;;;;4957641;28;20035;-61
2021/03/16 03:26:25;;;;;;;7.30;3.60;;;;;;;;;;4957780;28;20030;-61
2021/03/16 03:28:50;;;;;;;8.85;4.47;;;;;;;;;;4957747;28;20031;-54
2021/03/16 03:31:17;;;;;;;6.45;4.28;;;;;;;;;;4956757;28;20130;-59
2021/03/16 03:33:43;;;;;;;7.95;4.43;;;;;;;;;;4957930;28;20483;-61
2021/03/16 03:36:08;;;;;;;4.13;3.15;;;;;;;;;;4957933;28;20035;-61
2021/03/16 03:38:34;;;;;;;4.10;3.15;;;;;;;;;;4956166;28;20113;-62
2021/03/16 03:41:01;;;;;;;6.43;4.07;;;;;;;;;;4957902;28;20066;-58
2021/03/16 03:43:27;;;;;;;9.63;5.65;;;;;;;;;;4955950;28;20441;-61
2021/03/16 03:45:52;;;;;;;10.82;5.15;;;;;;;;;;4957396;28;20061;-60
2021/03/16 03:48:20;;;;;;;4.50;3.10;;;;;;;;;;4956490;28;20031;-61
2021/03/16 03:50:48;;;;;;;5.20;4.70;;;;;;;;;;4959017;28;20083;-60
2021/03/16 03:53:14;;;;;;;4.53;3.25;;;;;;;;;;4956360;28;20116;-62
2021/03/16 03:55:42;;;;;;;18.60;4.38;;;;;;;;;;4958744;28;20513;-61
2021/03/16 03:58:08;;;;;;;9.15;4.50;;;;;;;;;;4957801;28;20034;-62
2021/03/16 04:00:34;;;;;;;10.35;4.07;;;;;;;;;;4957401;28;20047;-62
2021/03/16 04:03:00;;;;;;;7.60;4.35;;;;;;;;;;4956058;28;20639;-61
2021/03/16 04:05:26;;;;;;;13.90;5.22;;;;;;;;;;4956441;28;20032;-59
2021/03/16 04:07:51;;;;;;;4.45;2.58;;;;;;;;;;4957418;28;20022;-59
2021/03/16 04:10:16;;;;;;;5.30;2.47;;;;;;;;;;4958201;28;20458;-62
2021/03/16 04:12:42;;;;;;;2.65;2.08;;;;;;;;;;4959632;28;20035;-61
2021/03/16 04:15:14;;;;;;;4.32;2.55;;;;;;;;;;4963010;28;20564;-60
2021/03/16 04:17:40;;;;;;;4.75;3.30;;;;;;;;;;4962486;28;20050;-60
2021/03/16 04:20:06;;;;;;;4.00;2.92;;;;;;;;;;4960619;28;20031;-60
2021/03/16 04:22:32;;;;;;;11.23;4.25;;;;;;;;;;4959363;28;20035;-62
2021/03/16 04:24:57;;;;;;;6.63;2.92;;;;;;;;;;4961428;28;20060;-61
2021/03/16 04:27:23;;;;;;;6.03;3.30;;;;;;;;;;4959306;28;20525;-62
2021/03/16 04:29:49;;;;;;;8.18;3.22;;;;;;;;;;4961357;28;20114;-61
2021/03/16 04:32:14;;;;;;;5.68;3.80;;;;;;;;;;4960438;28;20031;-56
2021/03/16 04:34:39;;;;;;;7.63;3.67;;;;;;;;;;4958703;28;20398;-60
2021/03/16 04:37:05;;;;;;;8.85;3.78;;;;;;;;;;4961494;28;20069;-61
2021/03/16 04:39:30;;;;;;;5.05;3.03;;;;;;;;;;4960284;28;20062;-61
2021/03/16 04:41:55;;;;;;;5.93;3.15;;;;;;;;;;4960310;28;20100;-61
2021/03/16 04:44:21;;;;;;;4.15;3.00;;;;;;;;;;4960297;28;20050;-58
2021/03/16 04:46:46;;;;;;;4.65;3.67;;;;;;;;;;4946238;28;20615;-58
2021/03/16 04:49:12;;;;;;;3.65;2.95;;;;;;;;;;4961309;28;20039;-59
2021/03/16 04:51:37;;;;;;;4.63;2.60;;;;;;;;;;4958969;28;20055;-58
2021/03/16 04:54:03;;;;;;;15.30;3.50;;;;;;;;;;4959951;28;20107;-59
2021/03/16 04:56:28;;;;;;;3.67;2.10;;;;;;;;;;4959489;28;20039;-59
2021/03/16 04:58:53;;;;;;;3.17;1.88;;;;;;;;;;4960048;28;20031;-59
2021/03/16 05:01:19;;;;;;;6.18;2.42;;;;;;;;;;4961055;28;20041;-61
2021/03/16 05:03:44;;;;;;;5.10;2.25;;;;;;;;;;4959014;28;20466;-62
2021/03/16 05:06:09;;;;;;;4.97;2.97;;;;;;;;;;4959942;28;20038;-59
2021/03/16 05:08:35;;;;;;;5.35;2.70;;;;;;;;;;4960158;28;20044;-62
2021/03/16 05:11:00;;;;;;;5.15;1.70;;;;;;;;;;4968404;28;20460;-61
2021/03/16 05:13:25;;;;;;;6.90;2.00;;;;;;;;;;4960034;28;20822;-61
2021/03/16 05:15:51;;;;;;;4.65;2.55;;;;;;;;;;4961389;28;20032;-61
2021/03/16 05:18:16;;;;;;;4.22;3.25;;;;;;;;;;4958750;28;20046;-61
2021/03/16 05:20:41;;;;;;;5.05;4.05;;;;;;;;;;4960621;28;20143;-60
2021/03/16 05:23:06;;;;;;;9.45;6.70;;;;;;;;;;4959068;28;20031;-62
2021/03/16 05:25:32;;;;;;;7.93;6.53;;;;;;;;;;4960622;28;20114;-61
2021/03/16 05:27:57;;;;;;;8.60;7.22;;;;;;;;;;4959629;28;20023;-60
2021/03/16 05:30:23;;;;;;;11.15;5.10;;;;;;;;;;4965500;28;20109;-61
2021/03/16 05:32:55;;;;;;;9.85;4.20;;;;;;;;;;4958676;28;20031;-60
2021/03/16 05:35:21;;;;;;;8.45;5.82;;;;;;;;;;4959769;28;20041;-62
2021/03/16 05:37:46;;;;;;;6.22;4.50;;;;;;;;;;4958907;28;20027;-62
2021/03/16 05:40:11;;;;;;;4.45;4.05;;;;;;;;;;4958682;28;20038;-61
2021/03/16 05:42:37;;;;;;;5.93;4.13;;;;;;;;;;4962038;28;20377;-62
2021/03/16 05:45:03;;;;;;;12.52;3.40;;;;;;;;;;4958821;28;20066;-61
2021/03/16 05:47:28;;;;;;;5.00;3.50;;;;;;;;;;4958828;28;20062;-62
2021/03/16 05:49:57;;;;;;;5.20;3.90;;;;;;;;;;4959485;28;20031;-61
2021/03/16 05:52:23;;;;;;;7.43;3.85;;;;;;;;;;4959325;28;20066;-62
2021/03/16 05:54:51;;;;;;;6.50;3.92;;;;;;;;;;4958661;28;20067;-61
2021/03/16 05:57:17;;;;;;;7.97;4.38;;;;;;;;;;4958008;28;20425;-62
2021/03/16 05:59:42;;;;;;;10.73;4.85;;;;;;;;;;4959787;28;20031;-60
2021/03/16 06:02:07;;;;;;;6.85;4.47;;;;;;;;;;4959402;28;20027;-62
2021/03/16 06:04:33;;;;;;;2.85;2.53;;;;;;;;;;4957273;28;20078;-62
2021/03/16 06:06:58;;;;;;;7.20;3.83;;;;;;;;;;4959074;28;20496;-59
2021/03/16 06:09:23;;;;;;;4.47;3.08;;;;;;;;;;4957735;28;20054;-62
2021/03/16 06:11:50;;;;;;;5.30;3.33;;;;;;;;;;4959212;28;20042;-62
2021/03/16 06:14:15;;;;;;;8.45;4.05;;;;;;;;;;4958892;28;20147;-58
2021/03/16 06:16:40;;;;;;;11.73;4.10;;;;;;;;;;4968226;28;20810;-60
2021/03/16 06:19:06;;;;;;;7.75;3.97;;;;;;;;;;4968851;28;20027;-61
2021/03/16 06:21:31;;;;;;;8.85;2.70;;;;;;;;;;4968355;28;20593;-61
2021/03/16 06:24:00;;;;;;;10.50;3.47;;;;;;;;;;4968374;28;20025;-61
2021/03/16 06:26:27;;;;;;;4.45;3.78;;;;;;;;;;4968429;28;20034;-61
2021/03/16 06:29:03;;;;;;;17.48;4.78;;;;;;;;;;4969308;28;20023;-59
2021/03/16 06:31:28;;;;;;;11.23;3.28;;;;;;;;;;4959851;28;20030;-62
2021/03/16 06:33:53;;;;;;;5.43;4.22;;;;;;;;;;4942690;28;20023;-58
2021/03/16 06:36:23;;;;;;;16.67;6.85;;;;;;;;;;4956634;28;20035;-60
2021/03/16 06:38:48;;;;;;;11.95;5.65;;;;;;;;;;4960336;28;20030;-58
2021/03/16 06:41:15;;;;;;;12.98;8.05;;;;;;;;;;4962909;28;20038;-58
2021/03/16 06:43:41;;;;;;;11.85;8.23;;;;;;;;;;4956391;28;20086;-59
2021/03/16 06:46:06;;;;;;;19.67;7.70;;;;;;;;;;4957943;28;20038;-59
2021/03/16 06:48:36;;;;;;;9.13;6.18;;;;;;;;;;4958002;28;20079;-59
2021/03/16 06:51:12;;;;;;;16.50;6.85;;;;;;;;;;4957971;28;20074;-60
2021/03/16 06:53:38;;;;;;;8.90;4.45;;;;;;;;;;4958213;28;20026;-59
2021/03/16 06:56:03;;;;;;;12.20;4.38;;;;;;;;;;4957565;28;20031;-59
2021/03/16 06:58:32;;;;;;;6.88;3.05;;;;;;;;;;4957264;28;20152;-59
2021/03/16 07:01:10;;;;;;;10.27;4.03;;;;;;;;;;4958069;28;20054;-59
2021/03/16 07:03:38;;;;;;;6.00;3.50;;;;;;;;;;4958012;28;20346;-60
2021/03/16 07:06:07;;;;;;;10.75;2.97;;;;;;;;;;4959111;28;20039;-60
2021/03/16 07:08:32;;;;;;;8.40;6.78;;;;;;;;;;4962890;28;20788;-59
2021/03/16 07:10:58;;;;;;;35.38;21.58;;;;;;;;;;4957907;28;20054;-57
2021/03/16 07:13:23;;;;;;;39.45;23.63;;;;;;;;;;4959485;28;20031;-59
2021/03/16 07:15:49;;;;;;;31.90;22.55;;;;;;;;;;4959751;28;20031;-58
2021/03/16 07:18:15;;;;;;;26.08;19.35;;;;;;;;;;4958188;28;20069;-60
2021/03/16 07:20:41;;;;;;;23.67;15.48;;;;;;;;;;4956650;28;20073;-63
2021/03/16 07:23:08;;;;;;;19.73;10.57;;;;;;;;;;4957799;28;20365;-61
2021/03/16 07:25:33;;;;;;;13.52;8.55;;;;;;;;;;4957744;28;20037;-58
2021/03/16 07:28:01;;;;;;;9.98;7.53;;;;;;;;;;4957832;28;20129;-60
2021/03/16 07:30:27;;;;;;;14.55;8.65;;;;;;;;;;4957314;28;20039;-59
2021/03/16 07:32:53;;;;;;;10.38;7.00;;;;;;;;;;4962658;28;20090;-59
2021/03/16 07:35:18;;;;;;;14.18;10.93;;;;;;;;;;4956209;28;20042;-60
2021/03/16 07:37:44;;;;;;;23.98;13.65;;;;;;;;;;4958521;28;20457;-57
2021/03/16 07:40:10;;;;;;;23.60;16.30;;;;;;;;;;4958340;28;20044;-60
2021/03/16 07:42:37;;;;;;;32.28;22.00;;;;;;;;;;4956069;28;20043;-61
2021/03/16 07:45:03;;;;;;;51.25;34.13;;;;;;;;;;4958230;28;20751;-60
2021/03/16 07:47:36;;;;;;;60.30;36.47;;;;;;;;;;4960704;28;20034;-59
2021/03/16 07:50:06;;;;;;;61.13;35.53;;;;;;;;;;4961242;28;20039;-59
2021/03/16 07:52:31;;;;;;;35.15;18.42;;;;;;;;;;4960209;28;20040;-61
2021/03/16 07:54:56;;;;;;;14.30;7.93;;;;;;;;;;4962212;28;20039;-60
2021/03/16 07:57:30;;;;;;;10.00;6.50;;;;;;;;;;4959216;28;20019;-58
2021/03/16 07:59:59;;;;;;;7.18;6.40;;;;;;;;;;4961591;28;20556;-59
2021/03/16 08:02:28;;;;;;;35.38;31.58;;;;;;;;;;4959500;28;20091;-58
2021/03/16 08:04:53;;;;;;;16.08;13.30;;;;;;;;;;4961252;28;20034;-57
2021/03/16 08:07:20;;;;;;;24.73;15.32;;;;;;;;;;4963773;28;20043;-59
2021/03/16 08:09:54;;;;;;;18.73;16.13;;;;;;;;;;4962408;28;20039;-59
2021/03/16 08:12:21;;;;;;;29.05;17.25;;;;;;;;;;4960464;28;20041;-58
2021/03/16 08:14:46;;;;;;;23.48;15.50;;;;;;;;;;4959839;28;20035;-60
2021/03/16 08:17:12;;;;;;;24.75;16.52;;;;;;;;;;4962107;28;20038;-58
2021/03/16 08:19:38;;;;;;;38.90;31.45;;;;;;;;;;4962294;28;20038;-55
2021/03/16 09:29:49;;;;;;;10.55;3.97;;;;;;;;;;5058770;23;20061;-56
2021/03/16 09:32:15;;;;;;;8.27;3.72;;;;;;;;;;4955807;28;20031;-56
2021/03/16 09:34:43;;;;;;;10.20;4.20;;;;;;;;;;4953570;28;20031;-56
2021/03/16 09:37:10;;;;;;;6.25;3.33;;;;;;;;;;4957460;28;20031;-59
2021/03/16 09:39:36;;;;;;;12.20;4.05;;;;;;;;;;4953708;28;20103;-59
2021/03/16 09:42:03;;;;;;;6.82;3.35;;;;;;;;;;4956216;28;20070;-50
2021/03/16 09:44:28;;;;;;;8.25;2.85;;;;;;;;;;4955589;28;20034;-58
2021/03/16 09:46:54;;;;;;;17.83;5.85;;;;;;;;;;4956340;28;20027;-57
2021/03/16 09:49:26;;;;;;;16.40;5.63;;;;;;;;;;4951362;28;20802;-57
2021/03/16 09:51:51;;;;;;;9.95;4.95;;;;;;;;;;4950859;28;20370;-59
2021/03/16 09:54:17;;;;;;;13.48;7.70;;;;;;;;;;4953864;28;20058;-58
2021/03/16 09:56:49;;;;;;;12.27;5.68;;;;;;;;;;4954558;28;20073;-57
2021/03/16 09:59:14;;;;;;;13.10;5.63;;;;;;;;;;4955916;28;20088;-57
2021/03/16 10:01:40;;;;;;;8.48;3.97;;;;;;;;;;4953889;28;20439;-56
2021/03/16 10:04:11;;;;;;;23.75;6.47;;;;;;;;;;4950155;28;20052;-59
2021/03/16 10:06:41;;;;;;;4.33;2.23;;;;;;;;;;4948349;28;20019;-59
2021/03/16 10:09:13;;;;;;;10.85;5.03;;;;;;;;;;4946244;28;20434;-57
2021/03/16 10:11:38;;;;;;;8.60;3.70;;;;;;;;;;4947487;29;20118;-58
2021/03/16 10:14:04;;;;;;;9.93;4.30;;;;;;;;;;4948253;29;20133;-57
2021/03/16 10:16:30;;;;;;;12.02;9.05;;;;;;;;;;4946800;29;20469;-59
2021/03/16 10:18:56;;;;;;;20.20;9.00;;;;;;;;;;4930250;29;20031;-60
2021/03/16 10:21:28;;;;;;;11.85;5.25;;;;;;;;;;4946783;29;20105;-58
2021/03/16 10:23:56;;;;;;;4.25;2.60;;;;;;;;;;4934890;29;20035;-57
2021/03/16 10:26:22;;;;;;;4.35;2.13;;;;;;;;;;4936322;29;20170;-57
2021/03/16 10:28:47;;;;;;;8.48;3.95;;;;;;;;;;4938392;29;20141;-58
2021/03/16 10:31:16;;;;;;;8.65;5.38;;;;;;;;;;4938039;29;20044;-57
2021/03/16 10:33:42;;;;;;;22.13;9.38;;;;;;;;;;4943255;28;20108;-57
2021/03/16 10:36:08;;;;;;;8.02;3.53;;;;;;;;;;4938753;29;20063;-57
2021/03/16 10:38:33;;;;;;;9.10;5.28;;;;;;;;;;4938028;29;20059;-56
2021/03/16 10:40:58;;;;;;;16.83;7.82;;;;;;;;;;4937525;29;20027;-56
2021/03/16 10:43:24;;;;;;;7.72;6.57;;;;;;;;;;4943620;28;20126;-57
2021/03/16 10:45:49;;;;;;;19.27;9.10;;;;;;;;;;4948201;28;20410;-56
2021/03/16 10:48:14;;;;;;;7.50;3.15;;;;;;;;;;4944194;29;20035;-59
2021/03/16 10:50:40;;;;;;;6.35;3.25;;;;;;;;;;4944517;28;20038;-56
2021/03/16 10:53:05;;;;;;;11.60;5.40;;;;;;;;;;4943412;29;20027;-57
2021/03/16 10:55:30;;;;;;;7.20;4.60;;;;;;;;;;4945809;29;20039;-56
2021/03/16 10:57:55;;;;;;;7.20;3.83;;;;;;;;;;4945914;29;20496;-58
2021/03/16 11:00:21;;;;;;;9.05;3.63;;;;;;;;;;4947534;29;20031;-57
2021/03/16 11:02:46;;;;;;;7.88;2.10;;;;;;;;;;4946919;29;20030;-59
2021/03/16 11:05:12;;;;;;;12.75;3.35;;;;;;;;;;4929748;29;20023;-57
2021/03/16 11:07:37;;;;;;;10.10;6.10;;;;;;;;;;4932745;28;20050;-58
2021/03/16 11:10:04;;;;;;;14.48;6.57;;;;;;;;;;4936511;29;20031;-60
2021/03/16 11:12:29;;;;;;;5.22;3.50;;;;;;;;;;4936418;28;20122;-59
2021/03/16 11:14:54;;;;;;;7.60;5.18;;;;;;;;;;4935921;29;20198;-55
2021/03/16 11:17:20;;;;;;;12.00;3.78;;;;;;;;;;4941911;28;20055;-58
2021/03/16 11:19:45;;;;;;;13.68;3.97;;;;;;;;;;4936524;28;20146;-58
2021/03/16 11:22:10;;;;;;;13.40;4.53;;;;;;;;;;4940291;28;20034;-57
2021/03/16 11:24:36;;;;;;;11.90;5.00;;;;;;;;;;4937456;28;20032;-57
2021/03/16 11:27:01;;;;;;;7.53;3.40;;;;;;;;;;4947124;28;20524;-59
2021/03/16 11:29:26;;;;;;;7.00;4.63;;;;;;;;;;4944645;29;20051;-57
2021/03/16 11:31:52;;;;;;;17.52;4.63;;;;;;;;;;4945413;28;20441;-60
2021/03/16 11:34:17;;;;;;;5.78;2.83;;;;;;;;;;4923473;29;20071;-58
2021/03/16 11:36:42;;;;;;;7.22;2.78;;;;;;;;;;4942037;28;20477;-58
2021/03/16 11:39:08;;;;;;;13.43;4.38;;;;;;;;;;4937310;29;20032;-59
2021/03/16 11:41:33;;;;;;;12.63;2.92;;;;;;;;;;4936393;28;20781;-59
2021/03/16 11:43:58;;;;;;;16.80;4.50;;;;;;;;;;4937192;28;20446;-58
2021/03/16 11:46:24;;;;;;;13.82;4.15;;;;;;;;;;4940889;28;20042;-58
2021/03/16 11:48:49;;;;;;;10.20;3.10;;;;;;;;;;4944015;29;20027;-60
2021/03/16 11:51:15;;;;;;;4.90;2.55;;;;;;;;;;4944643;28;20043;-58
2021/03/16 11:53:40;;;;;;;7.95;3.45;;;;;;;;;;4945444;29;20035;-58
2021/03/16 11:56:05;;;;;;;12.65;3.08;;;;;;;;;;4945844;28;20402;-60
2021/03/16 11:58:32;;;;;;;12.43;3.60;;;;;;;;;;4942407;29;20525;-60
2021/03/16 12:00:57;;;;;;;8.05;3.60;;;;;;;;;;4936665;28;20050;-60
2021/03/16 12:03:23;;;;;;;10.30;3.22;;;;;;;;;;4934555;28;20024;-60
2021/03/16 12:05:48;;;;;;;6.07;3.13;;;;;;;;;;4936355;29;20039;-61
2021/03/16 12:08:13;;;;;;;13.80;3.88;;;;;;;;;;4936430;28;20027;-62
2021/03/16 12:10:39;;;;;;;12.70;5.28;;;;;;;;;;4932601;29;20032;-59
2021/03/16 12:13:04;;;;;;;12.57;3.67;;;;;;;;;;4941741;28;20035;-60
2021/03/16 12:15:29;;;;;;;19.95;5.25;;;;;;;;;;4935919;29;20038;-59
2021/03/16 12:17:55;;;;;;;7.95;3.38;;;;;;;;;;4926992;29;20082;-60
2021/03/16 12:20:20;;;;;;;9.00;3.75;;;;;;;;;;4935551;29;20402;-58
2021/03/16 12:22:45;;;;;;;7.10;3.08;;;;;;;;;;4936281;28;20041;-58
2021/03/16 12:25:11;;;;;;;9.73;4.25;;;;;;;;;;4940706;28;20673;-57
2021/03/16 12:27:36;;;;;;;10.90;4.07;;;;;;;;;;4939557;28;20392;-58
2021/03/16 12:30:03;;;;;;;12.65;4.20;;;;;;;;;;4944493;29;20083;-56
2021/03/16 12:32:28;;;;;;;4.75;2.63;;;;;;;;;;4946133;28;20058;-57
2021/03/16 12:34:54;;;;;;;12.30;4.25;;;;;;;;;;4949814;29;20031;-56
2021/03/16 12:37:19;;;;;;;3.97;2.50;;;;;;;;;;4946433;28;20043;-59
2021/03/16 12:39:45;;;;;;;18.23;4.50;;;;;;;;;;4942707;28;20034;-56
2021/03/16 12:42:10;;;;;;;26.52;4.22;;;;;;;;;;4946862;29;20051;-58
2021/03/16 12:44:35;;;;;;;9.82;4.32;;;;;;;;;;4946082;29;20390;-58
2021/03/16 12:47:04;;;;;;;16.02;3.95;;;;;;;;;;4922702;29;20055;-60
2021/03/16 12:49:29;;;;;;;13.70;3.40;;;;;;;;;;4942229;28;20045;-58
2021/03/16 12:51:54;;;;;;;11.20;4.10;;;;;;;;;;4938595;29;20035;-56
2021/03/16 12:54:20;;;;;;;4.38;2.40;;;;;;;;;;4937207;29;20510;-56
2021/03/16 12:56:45;;;;;;;8.48;3.63;;;;;;;;;;4935954;29;20031;-56
2021/03/16 12:59:10;;;;;;;9.27;4.38;;;;;;;;;;4939977;29;20039;-58
2021/03/16 13:01:35;;;;;;;6.03;3.72;;;;;;;;;;4938582;29;20040;-55
2021/03/16 13:04:01;;;;;;;12.65;5.60;;;;;;;;;;4937309;29;20483;-60
2021/03/16 13:06:26;;;;;;;6.93;3.88;;;;;;;;;;4937251;29;20958;-57
2021/03/16 13:08:51;;;;;;;8.27;3.95;;;;;;;;;;4940090;29;20042;-56
2021/03/16 13:11:17;;;;;;;12.07;1.95;;;;;;;;;;4939962;29;20395;-57
2021/03/16 13:13:42;;;;;;;2.25;1.15;;;;;;;;;;4941545;28;20039;-57
2021/03/16 13:16:08;;;;;;;3.97;1.33;;;;;;;;;;4945011;28;20123;-59
2021/03/16 13:18:33;;;;;;;4.10;2.17;;;;;;;;;;4939802;29;20494;-58
2021/03/16 13:20:59;;;;;;;5.13;1.98;;;;;;;;;;4945243;28;20114;-59
2021/03/16 13:23:24;;;;;;;6.00;3.28;;;;;;;;;;4937983;29;20122;-58
2021/03/16 13:25:49;;;;;;;10.25;2.42;;;;;;;;;;4939434;29;20461;-58
2021/03/16 13:28:15;;;;;;;7.13;3.15;;;;;;;;;;4940242;29;20532;-57
2021/03/16 13:30:40;;;;;;;9.77;2.83;;;;;;;;;;4940686;29;20442;-58
2021/03/16 13:33:05;;;;;;;7.32;2.00;;;;;;;;;;4937362;29;20024;-58
2021/03/16 13:35:30;;;;;;;7.88;2.40;;;;;;;;;;4938610;29;20098;-59
2021/03/16 13:37:58;;;;;;;10.30;3.38;;;;;;;;;;4940236;29;20028;-59
2021/03/16 13:40:23;;;;;;;5.03;2.75;;;;;;;;;;4939080;29;20488;-57
2021/03/16 13:42:48;;;;;;;16.60;9.32;;;;;;;;;;4939279;28;20035;-60
2021/03/16 13:45:14;;;;;;;6.72;3.53;;;;;;;;;;4938330;29;20130;-57
2021/03/16 13:47:39;;;;;;;12.40;3.38;;;;;;;;;;4938067;29;20032;-60
2021/03/16 13:50:05;;;;;;;8.77;2.78;;;;;;;;;;4941252;29;20033;-56
2021/03/16 13:52:30;;;;;;;5.97;1.80;;;;;;;;;;4939169;29;20445;-59
2021/03/16 13:54:56;;;;;;;8.80;3.45;;;;;;;;;;4939607;29;20067;-58
2021/03/16 13:57:21;;;;;;;4.25;2.30;;;;;;;;;;4939240;29;20452;-59
2021/03/16 13:59:46;;;;;;;4.15;2.72;;;;;;;;;;4940436;29;20456;-59
2021/03/16 14:02:12;;;;;;;11.57;2.00;;;;;;;;;;4937684;29;20091;-60
2021/03/16 14:04:37;;;;;;;2.45;1.75;;;;;;;;;;4937477;29;20095;-60
2021/03/16 14:07:02;;;;;;;6.07;3.22;;;;;;;;;;4940746;29;20100;-59
2021/03/16 14:09:28;;;;;;;6.65;1.33;;;;;;;;;;4938499;29;20064;-57
2021/03/16 14:11:53;;;;;;;6.28;2.63;;;;;;;;;;4939170;29;20605;-57
2021/03/16 14:14:18;;;;;;;8.23;3.00;;;;;;;;;;4938069;29;20454;-60
2021/03/16 14:16:44;;;;;;;6.95;3.30;;;;;;;;;;4943183;29;20035;-59
2021/03/16 14:19:10;;;;;;;9.55;2.25;;;;;;;;;;4940398;29;20086;-58
2021/03/16 14:21:35;;;;;;;3.72;1.67;;;;;;;;;;4938897;29;20035;-58
2021/03/16 14:24:00;;;;;;;11.52;2.38;;;;;;;;;;4937698;29;20138;-60
2021/03/16 14:26:26;;;;;;;8.35;2.47;;;;;;;;;;4937555;29;20078;-58
2021/03/16 14:28:51;;;;;;;6.30;2.42;;;;;;;;;;4938347;29;20485;-59
2021/03/16 14:31:17;;;;;;;10.88;3.05;;;;;;;;;;4943422;28;20094;-60
2021/03/16 14:33:43;;;;;;;7.30;2.97;;;;;;;;;;4936886;29;20059;-59
2021/03/16 14:36:08;;;;;;;18.45;2.88;;;;;;;;;;4940140;29;20078;-59
2021/03/16 14:38:33;;;;;;;5.38;2.33;;;;;;;;;;4938485;29;20091;-60
2021/03/16 14:40:59;;;;;;;5.13;2.45;;;;;;;;;;4938449;29;20349;-60
2021/03/16 14:43:24;;;;;;;5.53;2.05;;;;;;;;;;4942475;28;20031;-58
2021/03/16 14:45:49;;;;;;;3.63;2.55;;;;;;;;;;4939145;29;20097;-58
2021/03/16 14:48:19;;;;;;;8.73;2.03;;;;;;;;;;4936892;29;20518;-59
2021/03/16 14:50:45;;;;;;;7.43;2.83;;;;;;;;;;4937450;29;20172;-57
2021/03/16 14:53:10;;;;;;;5.10;2.42;;;;;;;;;;4938964;29;20043;-59
2021/03/16 14:55:35;;;;;;;17.95;3.78;;;;;;;;;;4937298;29;20112;-58
2021/03/16 14:58:01;;;;;;;16.23;7.03;;;;;;;;;;4937393;29;20030;-58
2021/03/16 15:00:26;;;;;;;4.50;2.17;;;;;;;;;;4936623;29;20028;-56
2021/03/16 15:02:51;;;;;;;4.55;2.65;;;;;;;;;;4929987;29;20046;-55
2021/03/16 15:05:17;;;;;;;12.13;3.20;;;;;;;;;;4938496;29;20033;-58
2021/03/16 15:07:42;;;;;;;4.40;1.65;;;;;;;;;;4938927;29;20098;-56
2021/03/16 15:10:08;;;;;;;4.18;2.95;;;;;;;;;;4936666;29;20083;-56
2021/03/16 15:12:33;;;;;;;10.48;4.25;;;;;;;;;;4936100;29;20114;-58
2021/03/16 15:14:58;;;;;;;13.93;1.70;;;;;;;;;;4944141;28;20111;-56
2021/03/16 15:17:24;;;;;;;11.77;2.58;;;;;;;;;;4937892;28;20038;-56
2021/03/16 15:19:49;;;;;;;11.02;2.95;;;;;;;;;;4943442;28;20083;-58
2021/03/16 15:22:14;;;;;;;6.07;2.53;;;;;;;;;;4938323;29;20040;-54
2021/03/16 15:24:39;;;;;;;7.30;2.88;;;;;;;;;;4938470;29;20035;-57
2021/03/16 15:27:05;;;;;;;7.03;3.13;;;;;;;;;;4936421;29;20489;-57
2021/03/16 15:29:31;;;;;;;6.22;3.42;;;;;;;;;;4940157;29;20058;-57
2021/03/16 15:31:56;;;;;;;8.45;2.58;;;;;;;;;;4937365;29;20738;-56
2021/03/16 15:34:21;;;;;;;11.13;3.85;;;;;;;;;;4936017;29;20039;-57
2021/03/16 15:36:47;;;;;;;10.00;1.38;;;;;;;;;;4936799;29;20573;-57